Overview Statistics Trail Chart Weather Telemetry Raw packets
 

This is the latest recevied weather packets stored in our database for station/object MeshWX-1. If no packets are shown the sender has not sent any weather packets the latest 10 day(s).

<< 17 18 19 20 21 22 23 >>
Time Temp. Humidity Pressure Rain* Wind** Luminosity Snow
1788285154 29.44° C 41% 998.2 hPa - - - -
1788283821 30° C 36% 997.7 hPa - - - -
1788283760 30° C 36% 997.7 hPa - - - -
1788283066 30° C 36% 997.7 hPa - - - -
1788281722 22.22° C 49% 996.8 hPa - - - -
1788281661 22.22° C 49% 996.8 hPa - - - -
1788215642 22.22° C 49% 996.8 hPa - - - -
1788215597 23.33° C 46% 996.9 hPa - - - -
1788215293 23.33° C 46% 996.9 hPa - - - -
1788213463 23.33° C 46% 996.9 hPa - - - -
1788213073 42.22° C 18% 996.3 hPa - - - -
1788182698 42.22° C 18% 996.3 hPa - - - -
1788182604 41.67° C 19% 996.5 hPa - - - -
1788181749 41.67° C 19% 996.5 hPa - - - -
1788180682 41.67° C 19% 996.5 hPa - - - -
1788179649 41.11° C 20% 996.9 hPa - - - -
1788178594 41.11° C 20% 996.9 hPa - - - -
1788178572 41.67° C 21% 997.3 hPa - - - -
1788177548 41.67° C 21% 997.3 hPa - - - -
1788176566 41.67° C 21% 997.3 hPa - - - -
1788175448 38.89° C 24% 997.7 hPa - - - -
1788174500 38.89° C 24% 997.7 hPa - - - -
1788174462 38.89° C 24% 997.7 hPa - - - -
1788173288 37.22° C 27% 998.1 hPa - - - -
1788172348 37.22° C 27% 998.1 hPa - - - -

* Rain since midnight (hover to see other rain measurements)
** Current wind speed in m/s (hover to see current wind gust speed)